Главная страница
METAR-TAF:

METAR-TAF

Аэропорты :

Kbely

Прага, Чехия

широта: 50-07-17N, долгота: 14-32-37E, высота над уровнем моря: 286 м

Текущие метеонаблюдения

Эта сводка был подготовлена 1 час и 6 минут назад, в 22:00 UTC
Ветер 9 Узел от восточно-северо-восточный
Температура 18°C
Влажность 52%
Давление 1009 hPa
Видимость 10 км и более
Нет облачности ниже 1500 м, и нет кучево-дождевой облачности

METAR: LKKB 252200Z 07009KT CAVOK 18/08 Q1009

Время: 01:06 (23:06 UTC)

Прогноз

Эта сводка был подготовлена 6 часа и 6 минут назад, в 17:00 UTC
Прогноз действительный с 25-го 18 UTC до 26-го 18 UTC
Ветер 10 Узел от восточный
Видимость 10 км и более
Нет облачности ниже 1500 м, и нет кучево-дождевой облачности
изменения
С 25-го 20 UTC до 25-го 22 UTC
Ветер 8 Узел от юго-восточный

TAF: LKKB 251700Z 2518/2618 08010KT CAVOK BECMG 2520/2522 13008KT

Метеонаблюдения и прогнозы для более 4000 аэропортов (сводки METAR и TAF).

Имеющиеся станции представлены на карте желтыми и красными точками.

Чтобы увидеть название станции, наведите на нее мышь.

Затем щелкните, чтобы увидеть метеонаблюдения и метеопрогнозы.

Управление картой: чтобы увеличить масштаб, щелкните зеленые кнопки с черным крестиком; чтобы уменьшить масштаб, щелкните зеленую кнопку с тире; для просмотра соседних карт щелкайте зеленые стрелки.


METAR-TAF: